首页
METAR-TAF:

METAR-TAF

机场 :

策尔特韦格, 奥地利

纬度: 47-12N, 经度: 014-45E, 海拔: 677米

当前天气观测

该预报发布于46分钟前的17:50 UTC
风速6节,风向北转西北
温度 1°C
湿度 100%
气压 1010 hPa
能見度: 3000
轻雾

METAR: LOXZ 141750Z 33006KT 3000 BR FEW003ST SCT050SC 01/01 Q1010 NOSIG

时间: 19:36 (18:36 UTC)

预报

该预报发布于7小时和21分钟前的11:15 UTC
预报有效从14日的 12点(UTC)到 14日的 21点(UTC)
风速3节,风向多变
能見度: 8000
散云层高于600英尺
散云层高于1000英尺
短暂存在
从 14日的 12点(UTC)到 14日的 21点(UTC)
能見度: 3500
少量云层高于300英尺
散云层高于600英尺
多云层高于1000英尺

TAF: LOXZ 141115Z 1412/1421 VRB03KT 8000 SCT006 SCT010 TEMPO 1412/1421 3500 FEW003 SCT006 BKN010

超过4000个机场的气象观测和天气预报(METAR&TAF报告)。

可查询的气象台以黄色和红色小点在地图上表示。

将鼠标移到小点上方,可查看气象台名称。

然后点击查看天气观测和预报。

如需切换地图:点击带黑十字的绿色按钮放大地图;点击带横线的绿色按钮缩小地图;或者点击绿色箭头查看邻近地区的地图。


METAR-TAF: